Time;durP1;ratioP1;P1;durP2;ratioP2;P2;SDS_P1;SDS_P2;PMS_P1;PMS_P2;Temp;Humidity;BMP_temperature;BMP_pressure;BME280_temperature;BME280_humidity;BME280_pressure;Samples;Min_cycle;Max_cycle;Signal;HPM_P1;HPM_P2
2023/10/08 00:00:43;;;;;;;5.85;2.63;;;;;;;;;;5011533;28;20484;-76
2023/10/08 00:03:10;;;;;;;6.53;3.00;;;;;;;;;;5012263;28;20034;-76
2023/10/08 00:05:42;;;;;;;5.60;2.60;;;;;;;;;;5012972;28;20553;-76
2023/10/08 00:08:11;;;;;;;4.95;2.90;;;;;;;;;;5032057;28;20105;-76
2023/10/08 00:10:41;;;;;;;6.72;2.50;;;;;;;;;;5016374;28;20045;-76
2023/10/08 00:13:09;;;;;;;6.53;2.78;;;;;;;;;;5009319;28;20088;-76
2023/10/08 00:15:41;;;;;;;5.07;2.80;;;;;;;;;;5009442;28;20899;-76
2023/10/08 00:18:07;;;;;;;7.00;3.03;;;;;;;;;;5025391;28;20060;-75
2023/10/08 00:20:42;;;;;;;5.32;2.47;;;;;;;;;;5025510;28;20053;-76
2023/10/08 00:23:09;;;;;;;6.43;2.80;;;;;;;;;;5018456;28;20423;-76
2023/10/08 00:25:34;;;;;;;5.03;2.60;;;;;;;;;;5011841;28;20037;-76
2023/10/08 00:28:01;;;;;;;6.50;2.38;;;;;;;;;;5015472;28;20152;-76
2023/10/08 00:30:27;;;;;;;6.25;3.10;;;;;;;;;;5030012;28;20044;-76
2023/10/08 00:32:52;;;;;;;5.47;2.83;;;;;;;;;;5015408;28;20033;-76
2023/10/08 00:35:20;;;;;;;12.88;3.58;;;;;;;;;;5018512;28;20030;-76
2023/10/08 00:37:48;;;;;;;7.10;3.03;;;;;;;;;;5017020;28;20080;-76
2023/10/08 00:40:14;;;;;;;7.07;3.10;;;;;;;;;;5023174;28;20128;-76
2023/10/08 00:42:45;;;;;;;7.43;3.10;;;;;;;;;;5018914;28;20128;-76
2023/10/08 00:45:14;;;;;;;5.55;3.03;;;;;;;;;;5014396;28;20103;-76
2023/10/08 00:47:43;;;;;;;7.25;3.00;;;;;;;;;;5014550;28;20511;-76
2023/10/08 00:50:20;;;;;;;10.00;3.40;;;;;;;;;;5020396;28;20026;-76
2023/10/08 00:53:00;;;;;;;7.70;3.13;;;;;;;;;;5016403;28;20117;-76
2023/10/08 00:55:28;;;;;;;7.00;3.10;;;;;;;;;;5018450;28;20473;-76
2023/10/08 00:57:58;;;;;;;8.70;3.13;;;;;;;;;;5016447;28;20066;-76
2023/10/08 01:00:32;;;;;;;5.20;2.65;;;;;;;;;;5018233;28;20044;-76
2023/10/08 01:03:01;;;;;;;6.47;2.95;;;;;;;;;;5016102;28;20041;-76
2023/10/08 01:05:45;;;;;;;7.20;3.40;;;;;;;;;;5015839;28;20033;-76
2023/10/08 01:08:12;;;;;;;5.47;3.00;;;;;;;;;;5016138;28;20034;-76
2023/10/08 01:10:40;;;;;;;5.82;2.90;;;;;;;;;;5014317;28;20042;-77
2023/10/08 01:13:10;;;;;;;5.90;3.03;;;;;;;;;;5015678;28;20041;-76
2023/10/08 01:15:35;;;;;;;8.85;3.13;;;;;;;;;;5015737;28;20046;-76
2023/10/08 01:18:04;;;;;;;7.35;2.88;;;;;;;;;;5018406;28;20075;-76
2023/10/08 01:20:33;;;;;;;10.13;3.40;;;;;;;;;;5023113;28;20047;-76
2023/10/08 01:23:12;;;;;;;7.05;2.65;;;;;;;;;;5018061;28;20032;-76
2023/10/08 01:28:26;;;;;;;6.47;3.25;;;;;;;;;;5015857;28;20060;-76
2023/10/08 01:30:59;;;;;;;7.70;3.28;;;;;;;;;;5015968;28;20044;-76
2023/10/08 01:33:27;;;;;;;;;;;;;;;;;;5014412;28;20049;-76
2023/10/08 01:35:54;;;;;;;7.35;3.05;;;;;;;;;;5017364;28;19925;-76
2023/10/08 01:38:23;;;;;;;7.97;3.10;;;;;;;;;;5035526;28;20031;-76
2023/10/08 01:40:52;;;;;;;9.57;3.35;;;;;;;;;;5023692;28;20067;-76
2023/10/08 01:43:18;;;;;;;9.23;3.28;;;;;;;;;;5027573;28;20033;-76
2023/10/08 01:45:48;;;;;;;9.27;3.30;;;;;;;;;;5036061;28;20486;-75
2023/10/08 01:48:15;;;;;;;11.32;3.92;;;;;;;;;;5019969;28;20033;-76
2023/10/08 01:50:40;;;;;;;9.52;3.20;;;;;;;;;;5018943;28;20086;-76
2023/10/08 01:53:09;;;;;;;8.07;3.40;;;;;;;;;;5017850;28;20501;-76
2023/10/08 01:55:48;;;;;;;9.32;3.17;;;;;;;;;;5018092;28;20626;-76
2023/10/08 01:58:16;;;;;;;6.15;3.28;;;;;;;;;;5015318;28;20069;-76
2023/10/08 02:00:48;;;;;;;4.53;2.95;;;;;;;;;;5014951;28;20057;-76
2023/10/08 02:03:18;;;;;;;10.60;3.17;;;;;;;;;;5031319;28;20038;-76
2023/10/08 02:05:44;;;;;;;7.15;3.28;;;;;;;;;;5017529;28;20037;-76
2023/10/08 02:08:11;;;;;;;6.32;3.20;;;;;;;;;;5013798;28;20573;-76
2023/10/08 02:10:38;;;;;;;9.23;3.45;;;;;;;;;;5012746;28;20531;-76
2023/10/08 02:13:04;;;;;;;6.20;3.30;;;;;;;;;;5014695;28;20149;-76
2023/10/08 02:15:30;;;;;;;8.20;3.80;;;;;;;;;;5015604;28;20518;-76
2023/10/08 02:17:55;;;;;;;12.75;3.60;;;;;;;;;;5022409;28;20105;-76
2023/10/08 02:20:21;;;;;;;6.07;4.00;;;;;;;;;;5013176;28;20098;-75
2023/10/08 02:22:49;;;;;;;7.53;3.47;;;;;;;;;;5016167;28;20026;-75
2023/10/08 02:25:15;;;;;;;8.52;3.70;;;;;;;;;;5017466;28;20120;-75
2023/10/08 02:27:40;;;;;;;7.85;3.40;;;;;;;;;;5032093;28;20128;-76
2023/10/08 02:30:09;;;;;;;6.95;3.70;;;;;;;;;;5012978;28;20034;-76
2023/10/08 02:32:36;;;;;;;6.70;3.85;;;;;;;;;;5012367;28;20057;-76
2023/10/08 02:35:02;;;;;;;6.57;3.50;;;;;;;;;;5021604;28;20029;-75
2023/10/08 02:37:28;;;;;;;9.88;3.60;;;;;;;;;;5013930;28;20065;-75
2023/10/08 02:39:54;;;;;;;9.88;3.83;;;;;;;;;;5022647;28;20037;-76
2023/10/08 02:42:19;;;;;;;6.68;3.40;;;;;;;;;;5032727;28;20462;-75
2023/10/08 02:44:45;;;;;;;8.73;3.90;;;;;;;;;;5016317;28;20515;-76
2023/10/08 02:47:13;;;;;;;7.88;3.40;;;;;;;;;;5013815;28;20026;-76
2023/10/08 02:49:42;;;;;;;6.65;3.50;;;;;;;;;;5013607;28;20045;-76
2023/10/08 02:52:08;;;;;;;8.77;3.90;;;;;;;;;;5013791;28;20049;-76
2023/10/08 02:54:37;;;;;;;11.45;4.00;;;;;;;;;;5009764;28;20045;-76
2023/10/08 02:57:14;;;;;;;7.18;3.55;;;;;;;;;;5017261;28;20140;-76
2023/10/08 02:59:44;;;;;;;7.30;3.60;;;;;;;;;;5017078;28;20040;-75
2023/10/08 03:02:18;;;;;;;6.45;3.40;;;;;;;;;;5015021;28;20045;-75
2023/10/08 03:04:45;;;;;;;7.97;3.40;;;;;;;;;;5016739;28;20033;-76
2023/10/08 03:10:18;;;;;;;6.43;3.40;;;;;;;;;;5010823;28;20042;-75
2023/10/08 03:12:46;;;;;;;7.82;3.60;;;;;;;;;;5014524;28;20044;-76
2023/10/08 03:15:14;;;;;;;7.25;3.42;;;;;;;;;;5013897;28;20038;-76
2023/10/08 03:17:48;;;;;;;6.40;3.47;;;;;;;;;;5012810;28;20030;-76
2023/10/08 03:20:38;;;;;;;7.13;4.13;;;;;;;;;;5017717;28;20025;-76
2023/10/08 03:23:12;;;;;;;8.02;3.40;;;;;;;;;;5013398;28;20073;-76
2023/10/08 03:25:41;;;;;;;6.85;3.35;;;;;;;;;;5011480;28;20084;-76
2023/10/08 03:28:12;;;;;;;7.70;3.47;;;;;;;;;;5008035;28;20125;-75
2023/10/08 03:30:49;;;;;;;7.95;3.58;;;;;;;;;;5016309;28;20462;-76
2023/10/08 03:33:22;;;;;;;7.05;3.42;;;;;;;;;;5012969;28;20600;-76
2023/10/08 03:35:54;;;;;;;9.27;3.58;;;;;;;;;;5014171;28;20037;-75
2023/10/08 03:38:44;;;;;;;7.32;3.67;;;;;;;;;;5017041;28;20017;-75
2023/10/08 03:41:15;;;;;;;6.72;3.10;;;;;;;;;;5020927;28;20052;-75
2023/10/08 03:43:58;;;;;;;5.35;3.38;;;;;;;;;;5015613;28;20531;-75
2023/10/08 03:46:24;;;;;;;8.05;3.60;;;;;;;;;;5011604;28;20070;-75
2023/10/08 03:48:54;;;;;;;7.63;3.53;;;;;;;;;;5014300;28;20115;-75
2023/10/08 03:51:20;;;;;;;9.63;3.80;;;;;;;;;;5014607;28;20038;-74
2023/10/08 03:54:01;;;;;;;6.78;3.50;;;;;;;;;;5016367;28;20120;-75
2023/10/08 03:56:31;;;;;;;6.05;3.10;;;;;;;;;;5010593;28;20026;-75
2023/10/08 03:59:12;;;;;;;5.30;3.13;;;;;;;;;;5016006;28;20026;-75
2023/10/08 04:01:44;;;;;;;9.57;3.17;;;;;;;;;;5015641;28;20659;-75
2023/10/08 04:04:14;;;;;;;7.20;3.60;;;;;;;;;;5011797;28;20042;-79
2023/10/08 04:06:48;;;;;;;7.95;3.13;;;;;;;;;;5012779;28;20060;-75
2023/10/08 04:11:51;;;;;;;6.88;3.45;;;;;;;;;;5014365;28;20044;-75
2023/10/08 04:14:21;;;;;;;7.65;3.50;;;;;;;;;;5011550;28;20037;-75
2023/10/08 04:16:51;;;;;;;7.13;3.75;;;;;;;;;;5012083;28;20069;-75
2023/10/08 04:19:18;;;;;;;6.60;3.67;;;;;;;;;;5015979;28;20060;-75
2023/10/08 04:21:43;;;;;;;9.10;4.85;;;;;;;;;;5015093;28;20069;-75
2023/10/08 04:24:09;;;;;;;9.32;3.50;;;;;;;;;;5011728;28;20076;-75
2023/10/08 04:26:35;;;;;;;10.32;3.80;;;;;;;;;;5013287;28;20018;-75
2023/10/08 04:29:06;;;;;;;6.53;3.55;;;;;;;;;;5017298;28;20053;-75
2023/10/08 04:31:46;;;;;;;8.45;3.45;;;;;;;;;;5026310;28;20045;-75
2023/10/08 04:34:22;;;;;;;8.48;3.40;;;;;;;;;;5026862;28;20037;-76
2023/10/08 04:36:54;;;;;;;5.95;3.45;;;;;;;;;;5015471;28;20061;-76
2023/10/08 04:39:23;;;;;;;7.72;3.72;;;;;;;;;;5016355;28;20041;-75
2023/10/08 04:41:53;;;;;;;8.50;3.80;;;;;;;;;;5013269;28;20069;-76
2023/10/08 04:44:21;;;;;;;7.60;3.78;;;;;;;;;;5016278;28;20079;-76
2023/10/08 04:46:49;;;;;;;8.02;3.90;;;;;;;;;;5013003;28;20041;-75
2023/10/08 04:49:28;;;;;;;6.93;3.38;;;;;;;;;;5012445;28;20064;-76
2023/10/08 04:52:18;;;;;;;8.82;3.35;;;;;;;;;;5013797;28;20054;-76
2023/10/08 04:54:51;;;;;;;7.32;3.40;;;;;;;;;;5012430;28;20396;-75
2023/10/08 04:57:21;;;;;;;7.78;4.00;;;;;;;;;;5022864;28;20103;-76
2023/10/08 04:59:50;;;;;;;8.05;3.80;;;;;;;;;;5029105;28;20045;-76
2023/10/08 05:05:21;;;;;;;6.10;3.03;;;;;;;;;;5012438;28;20096;-76
2023/10/08 05:10:32;;;;;;;8.25;3.30;;;;;;;;;;5012156;28;20825;-76
2023/10/08 05:15:41;;;;;;;7.32;3.40;;;;;;;;;;5015360;28;20947;-75
2023/10/08 05:18:19;;;;;;;7.80;3.63;;;;;;;;;;5012111;28;20038;-76
2023/10/08 05:21:25;;;;;;;8.95;4.07;;;;;;;;;;5011740;28;20120;-75
2023/10/08 05:28:36;;;;;;;10.65;3.78;;;;;;;;;;5019424;28;20883;-76
2023/10/08 05:34:33;;;;;;;7.32;3.70;;;;;;;;;;5017941;28;20145;-75
2023/10/08 05:36:35;;;;;;;8.13;3.72;;;;;;;;;;5010821;28;20079;-76
2023/10/08 05:39:04;;;;;;;6.57;3.78;;;;;;;;;;5030688;28;20080;-76
2023/10/08 05:41:39;;;;;;;8.15;3.50;;;;;;;;;;5018577;28;20026;-76
2023/10/08 05:44:23;;;;;;;6.80;3.33;;;;;;;;;;5016830;28;20052;-76
2023/10/08 05:59:38;;;;;;;6.97;3.92;;;;;;;;;;5015269;28;20044;-75
2023/10/08 06:02:26;;;;;;;8.43;4.20;;;;;;;;;;5025429;28;20049;-76
2023/10/08 06:05:09;;;;;;;5.38;3.13;;;;;;;;;;5013694;28;20030;-75
2023/10/08 06:07:48;;;;;;;8.20;3.42;;;;;;;;;;5035559;28;20048;-76
2023/10/08 06:10:41;;;;;;;8.55;3.40;;;;;;;;;;5014614;28;20042;-75
2023/10/08 06:18:29;;;;;;;13.38;3.28;;;;;;;;;;5012972;28;20688;-75
2023/10/08 06:20:55;;;;;;;;;;;;;;;;;;5017680;28;20053;-75
2023/10/08 06:23:22;;;;;;;9.77;3.67;;;;;;;;;;5019560;28;19913;-76
2023/10/08 06:25:56;;;;;;;12.05;3.50;;;;;;;;;;5019258;28;20053;-76
2023/10/08 06:28:21;;;;;;;11.68;4.25;;;;;;;;;;5018381;28;20037;-76
2023/10/08 06:30:48;;;;;;;16.35;4.38;;;;;;;;;;5015437;28;20037;-75
2023/10/08 06:33:14;;;;;;;10.45;4.00;;;;;;;;;;5019289;28;20037;-75
2023/10/08 06:35:44;;;;;;;16.58;5.15;;;;;;;;;;5021447;28;20053;-76
2023/10/08 06:38:10;;;;;;;8.52;3.85;;;;;;;;;;5020282;28;20033;-75
2023/10/08 06:43:14;;;;;;;7.70;3.60;;;;;;;;;;5018098;28;20041;-76
2023/10/08 06:45:41;;;;;;;9.52;4.00;;;;;;;;;;5019811;28;20029;-76
2023/10/08 06:48:06;;;;;;;9.10;4.07;;;;;;;;;;5017596;28;20045;-76
2023/10/08 06:50:38;;;;;;;10.48;4.32;;;;;;;;;;5016327;28;20064;-76
2023/10/08 06:53:07;;;;;;;9.05;4.43;;;;;;;;;;5015847;28;20053;-76
2023/10/08 06:55:35;;;;;;;10.63;5.00;;;;;;;;;;5015802;28;20038;-75
2023/10/08 06:58:05;;;;;;;9.98;5.00;;;;;;;;;;5018160;28;20040;-75
2023/10/08 07:00:40;;;;;;;10.68;5.50;;;;;;;;;;5018517;28;20140;-76
2023/10/08 07:03:08;;;;;;;11.48;5.43;;;;;;;;;;5009716;28;20038;-76
2023/10/08 07:05:36;;;;;;;9.50;5.75;;;;;;;;;;5017514;28;20072;-76
2023/10/08 07:08:06;;;;;;;12.02;4.60;;;;;;;;;;5017333;28;20032;-76
2023/10/08 07:10:35;;;;;;;11.27;4.20;;;;;;;;;;5018511;28;20545;-76
2023/10/08 07:13:02;;;;;;;7.93;3.70;;;;;;;;;;5020521;28;20060;-75
2023/10/08 07:15:30;;;;;;;9.35;4.20;;;;;;;;;;5019296;28;20687;-75
2023/10/08 07:17:56;;;;;;;7.88;3.88;;;;;;;;;;5026248;28;20063;-76
2023/10/08 07:20:22;;;;;;;9.27;4.70;;;;;;;;;;5026531;28;20021;-76
2023/10/08 07:22:53;;;;;;;7.80;3.90;;;;;;;;;;5023664;28;20014;-75
2023/10/08 07:25:21;;;;;;;10.45;4.25;;;;;;;;;;5019455;28;20045;-76
2023/10/08 07:27:47;;;;;;;9.27;4.50;;;;;;;;;;5017351;28;20199;-75
2023/10/08 07:30:13;;;;;;;9.82;4.75;;;;;;;;;;5031152;28;20545;-76
2023/10/08 07:32:39;;;;;;;10.75;4.22;;;;;;;;;;5019392;28;20037;-75
2023/10/08 07:35:29;;;;;;;6.90;4.00;;;;;;;;;;5015593;28;20021;-75
2023/10/08 07:37:53;;;;;;;10.98;4.93;;;;;;;;;;5015203;28;20045;-76
2023/10/08 07:40:20;;;;;;;12.35;5.20;;;;;;;;;;5014874;28;20037;-75
2023/10/08 07:42:51;;;;;;;12.88;5.50;;;;;;;;;;5019042;28;20041;-75
2023/10/08 07:45:21;;;;;;;15.60;5.32;;;;;;;;;;5014952;28;20060;-75
2023/10/08 07:47:47;;;;;;;9.55;4.30;;;;;;;;;;5016921;28;20037;-74
2023/10/08 07:50:15;;;;;;;7.63;3.67;;;;;;;;;;5014961;28;20067;-74
2023/10/08 07:52:44;;;;;;;10.60;4.38;;;;;;;;;;5020113;28;20125;-74
2023/10/08 07:55:10;;;;;;;13.32;5.85;;;;;;;;;;5011225;28;20037;-74
2023/10/08 07:57:35;;;;;;;11.95;5.25;;;;;;;;;;5013264;28;20155;-74
2023/10/08 08:00:18;;;;;;;11.05;5.43;;;;;;;;;;5015333;28;20443;-74
2023/10/08 08:02:44;;;;;;;11.27;5.50;;;;;;;;;;5015328;28;20037;-73
2023/10/08 08:05:09;;;;;;;15.82;5.65;;;;;;;;;;5018875;28;20446;-73
2023/10/08 08:07:34;;;;;;;11.27;5.47;;;;;;;;;;5014858;28;20041;-73
2023/10/08 08:10:00;;;;;;;14.18;6.60;;;;;;;;;;5011299;28;20136;-74
2023/10/08 08:12:28;;;;;;;12.50;5.63;;;;;;;;;;5011910;28;20041;-75
2023/10/08 08:14:54;;;;;;;17.88;6.20;;;;;;;;;;5034057;28;20042;-74
2023/10/08 08:17:22;;;;;;;15.02;6.45;;;;;;;;;;5009596;28;20098;-74
2023/10/08 08:19:51;;;;;;;18.65;5.72;;;;;;;;;;5013860;28;20099;-74
2023/10/08 08:22:21;;;;;;;13.52;5.35;;;;;;;;;;5035352;28;20048;-74
2023/10/08 08:24:59;;;;;;;10.43;4.65;;;;;;;;;;5016550;28;20148;-75
2023/10/08 08:27:34;;;;;;;14.95;5.20;;;;;;;;;;5015420;28;20122;-74
2023/10/08 08:30:10;;;;;;;7.78;4.35;;;;;;;;;;5015572;28;20045;-74
2023/10/08 08:32:44;;;;;;;13.98;7.43;;;;;;;;;;5018039;28;20030;-74
2023/10/08 08:35:11;;;;;;;12.05;5.88;;;;;;;;;;5014977;28;20026;-74
2023/10/08 08:37:40;;;;;;;12.63;5.50;;;;;;;;;;5013516;28;20049;-74
2023/10/08 08:40:17;;;;;;;9.40;5.20;;;;;;;;;;5021450;28;20037;-74
2023/10/08 08:42:45;;;;;;;10.85;5.50;;;;;;;;;;5025530;28;20646;-74
2023/10/08 08:45:13;;;;;;;14.38;5.53;;;;;;;;;;5024536;28;20042;-74
2023/10/08 08:47:42;;;;;;;12.45;5.90;;;;;;;;;;5011709;28;20606;-74
2023/10/08 08:50:08;;;;;;;9.98;5.40;;;;;;;;;;5012493;28;20030;-73
2023/10/08 08:52:36;;;;;;;13.40;6.25;;;;;;;;;;5012784;28;20439;-74
2023/10/08 08:55:06;;;;;;;11.63;5.60;;;;;;;;;;5009923;28;20040;-74
2023/10/08 08:57:33;;;;;;;13.13;5.55;;;;;;;;;;5012672;28;20048;-73
2023/10/08 08:59:59;;;;;;;10.93;4.93;;;;;;;;;;5017102;28;20072;-74
2023/10/08 09:02:24;;;;;;;14.50;5.93;;;;;;;;;;5019181;28;20116;-74
2023/10/08 09:04:50;;;;;;;11.55;5.75;;;;;;;;;;5010815;28;20241;-75
2023/10/08 09:07:21;;;;;;;14.18;5.72;;;;;;;;;;5022042;28;20526;-74
2023/10/08 09:09:49;;;;;;;11.73;5.97;;;;;;;;;;5017357;28;20073;-74
2023/10/08 09:12:16;;;;;;;10.18;5.68;;;;;;;;;;5016241;28;20037;-74
2023/10/08 09:14:43;;;;;;;13.00;6.90;;;;;;;;;;5016303;28;20045;-74
2023/10/08 09:17:09;;;;;;;16.02;7.40;;;;;;;;;;5016569;28;20032;-74
2023/10/08 09:19:38;;;;;;;18.70;6.50;;;;;;;;;;5016754;28;20455;-74
2023/10/08 09:22:09;;;;;;;11.93;6.40;;;;;;;;;;5019590;28;20043;-74
2023/10/08 09:24:36;;;;;;;14.00;6.90;;;;;;;;;;5019165;28;20039;-74
2023/10/08 09:27:15;;;;;;;11.25;5.32;;;;;;;;;;5016732;28;20037;-74
2023/10/08 09:29:41;;;;;;;12.88;6.22;;;;;;;;;;5020029;28;20052;-74
2023/10/08 09:32:14;;;;;;;13.07;6.22;;;;;;;;;;5014252;28;20101;-74
2023/10/08 09:34:40;;;;;;;16.48;6.57;;;;;;;;;;5021094;28;20222;-73
2023/10/08 09:37:07;;;;;;;11.93;6.60;;;;;;;;;;5017597;28;20048;-74
2023/10/08 09:39:35;;;;;;;15.85;7.00;;;;;;;;;;5019265;28;20101;-73
2023/10/08 09:42:03;;;;;;;14.93;6.60;;;;;;;;;;5015557;28;20092;-73
2023/10/08 09:44:30;;;;;;;16.15;7.10;;;;;;;;;;5014632;28;20034;-74
2023/10/08 09:47:06;;;;;;;17.80;6.80;;;;;;;;;;5021347;28;20064;-74
2023/10/08 09:49:38;;;;;;;12.63;5.78;;;;;;;;;;5013790;28;20137;-74
2023/10/08 09:52:06;;;;;;;13.85;5.97;;;;;;;;;;5011846;28;20152;-75
2023/10/08 09:54:42;;;;;;;12.23;5.50;;;;;;;;;;5014233;28;20034;-75
2023/10/08 09:57:10;;;;;;;9.80;4.97;;;;;;;;;;5014989;28;20100;-75
2023/10/08 09:59:37;;;;;;;10.55;4.95;;;;;;;;;;5014823;28;20040;-76
2023/10/08 10:02:05;;;;;;;13.38;5.40;;;;;;;;;;5020735;28;20028;-75
2023/10/08 10:04:31;;;;;;;13.80;5.22;;;;;;;;;;5031635;28;20044;-75
2023/10/08 10:07:00;;;;;;;9.93;5.25;;;;;;;;;;5033518;28;20029;-74
2023/10/08 10:09:26;;;;;;;11.57;4.82;;;;;;;;;;5021916;28;20042;-75
2023/10/08 10:11:54;;;;;;;12.30;5.65;;;;;;;;;;5017118;28;20038;-75
2023/10/08 10:14:23;;;;;;;14.15;5.20;;;;;;;;;;5013903;28;20037;-76
2023/10/08 10:17:09;;;;;;;14.45;5.47;;;;;;;;;;5015199;28;20144;-76
2023/10/08 10:19:35;;;;;;;14.57;5.30;;;;;;;;;;5017846;28;20041;-75
2023/10/08 10:22:03;;;;;;;16.65;5.25;;;;;;;;;;5017373;28;20037;-75
2023/10/08 10:24:35;;;;;;;10.48;5.25;;;;;;;;;;5017436;28;20048;-75
2023/10/08 10:27:11;;;;;;;14.15;5.30;;;;;;;;;;5015854;28;20040;-76
2023/10/08 10:29:36;;;;;;;12.00;5.05;;;;;;;;;;5013654;28;20025;-75
2023/10/08 10:32:05;;;;;;;9.93;4.47;;;;;;;;;;5014791;28;20068;-75
2023/10/08 10:34:34;;;;;;;18.52;6.03;;;;;;;;;;5014074;28;20034;-76
2023/10/08 10:37:08;;;;;;;12.13;5.50;;;;;;;;;;5019121;28;20045;-76
2023/10/08 10:39:39;;;;;;;10.80;4.68;;;;;;;;;;5017060;28;20037;-77
2023/10/08 10:42:06;;;;;;;11.48;4.57;;;;;;;;;;5011891;28;20037;-78
2023/10/08 10:44:36;;;;;;;12.25;5.00;;;;;;;;;;5005193;28;20034;-78
2023/10/08 10:50:25;;;;;;;9.20;5.53;;;;;;;;;;5013623;28;20041;-75
2023/10/08 10:57:55;;;;;;;9.43;4.82;;;;;;;;;;5011716;28;20040;-76
2023/10/08 11:03:02;;;;;;;10.07;5.78;;;;;;;;;;5005090;28;20038;-75
2023/10/08 11:05:36;;;;;;;11.82;5.60;;;;;;;;;;4999653;28;20231;-76
2023/10/08 11:08:06;;;;;;;12.98;5.05;;;;;;;;;;5010556;28;20048;-75
2023/10/08 11:10:51;;;;;;;10.32;5.47;;;;;;;;;;5003639;28;20041;-75
2023/10/08 11:13:21;;;;;;;9.05;5.00;;;;;;;;;;5013500;28;20037;-75
2023/10/08 11:15:51;;;;;;;13.27;5.45;;;;;;;;;;5011571;28;20044;-75
2023/10/08 11:18:22;;;;;;;9.40;5.25;;;;;;;;;;5014406;28;20152;-75
2023/10/08 11:21:02;;;;;;;11.82;5.18;;;;;;;;;;5013305;28;20033;-75
2023/10/08 11:23:33;;;;;;;15.57;5.55;;;;;;;;;;5011814;28;20034;-76
2023/10/08 11:26:03;;;;;;;10.57;5.50;;;;;;;;;;5021150;28;20018;-76
2023/10/08 11:28:34;;;;;;;11.27;5.18;;;;;;;;;;5029608;28;20039;-76
2023/10/08 11:31:10;;;;;;;11.40;5.20;;;;;;;;;;5026208;28;20045;-75
2023/10/08 11:33:41;;;;;;;11.25;5.03;;;;;;;;;;5013569;28;20041;-75
2023/10/08 11:36:24;;;;;;;12.77;5.07;;;;;;;;;;5003937;28;20124;-76
2023/10/08 11:38:53;;;;;;;10.93;4.90;;;;;;;;;;5011408;28;20029;-76
2023/10/08 11:41:21;;;;;;;9.43;5.13;;;;;;;;;;5031269;28;20029;-75
2023/10/08 11:43:56;;;;;;;13.45;6.88;;;;;;;;;;5017472;28;20099;-75
2023/10/08 11:46:38;;;;;;;13.55;5.10;;;;;;;;;;5009983;28;20570;-76
2023/10/08 11:49:07;;;;;;;11.27;5.40;;;;;;;;;;5018817;28;20041;-81
2023/10/08 11:51:33;;;;;;;10.85;4.97;;;;;;;;;;5028967;28;20068;-76
2023/10/08 11:54:02;;;;;;;10.60;5.15;;;;;;;;;;5012365;28;20518;-76
2023/10/08 11:56:33;;;;;;;13.13;5.45;;;;;;;;;;5011503;28;20073;-76
2023/10/08 11:59:00;;;;;;;12.60;5.78;;;;;;;;;;5012188;28;20029;-76
2023/10/08 12:01:26;;;;;;;9.05;5.03;;;;;;;;;;5018880;28;20049;-76
2023/10/08 12:03:52;;;;;;;15.23;6.05;;;;;;;;;;5012061;28;20046;-75
2023/10/08 12:06:21;;;;;;;11.65;5.90;;;;;;;;;;5009595;28;20037;-75
2023/10/08 12:08:47;;;;;;;9.48;4.80;;;;;;;;;;5011497;28;20042;-75
2023/10/08 12:11:14;;;;;;;12.75;5.55;;;;;;;;;;5014263;28;20033;-76
2023/10/08 12:13:47;;;;;;;9.45;4.97;;;;;;;;;;5012632;28;20048;-75
2023/10/08 12:16:21;;;;;;;8.50;4.22;;;;;;;;;;5009707;28;20041;-75
2023/10/08 12:18:58;;;;;;;10.95;4.93;;;;;;;;;;5011342;28;20037;-75
2023/10/08 12:21:29;;;;;;;9.38;4.47;;;;;;;;;;5012811;28;20038;-76
2023/10/08 12:23:56;;;;;;;10.48;5.43;;;;;;;;;;5013545;28;20080;-76
2023/10/08 12:26:22;;;;;;;11.52;5.15;;;;;;;;;;5013179;28;20111;-76
2023/10/08 12:28:48;;;;;;;14.75;5.00;;;;;;;;;;5011558;28;20073;-75
2023/10/08 12:31:23;;;;;;;10.70;5.47;;;;;;;;;;5013822;28;20045;-76
2023/10/08 12:33:53;;;;;;;12.25;5.35;;;;;;;;;;5014415;28;20132;-76
2023/10/08 12:36:22;;;;;;;13.55;6.70;;;;;;;;;;5013422;28;20450;-76
2023/10/08 12:38:48;;;;;;;12.75;6.55;;;;;;;;;;5015384;28;20121;-75
2023/10/08 12:41:13;;;;;;;11.50;5.90;;;;;;;;;;5016407;28;20124;-76
2023/10/08 12:43:45;;;;;;;11.27;5.68;;;;;;;;;;5023739;28;20037;-76
2023/10/08 12:46:18;;;;;;;12.52;6.38;;;;;;;;;;5020634;28;20046;-75
2023/10/08 12:48:47;;;;;;;12.23;5.85;;;;;;;;;;5018730;28;20077;-74
2023/10/08 12:51:12;;;;;;;10.05;5.40;;;;;;;;;;5027817;28;20063;-74
2023/10/08 12:53:38;;;;;;;10.55;5.07;;;;;;;;;;5036841;28;20075;-75
2023/10/08 12:56:14;;;;;;;14.43;5.18;;;;;;;;;;5020864;28;20021;-74
2023/10/08 12:58:53;;;;;;;12.98;5.85;;;;;;;;;;5035102;28;20044;-76
2023/10/08 13:01:19;;;;;;;11.32;4.40;;;;;;;;;;5015338;28;20084;-76
2023/10/08 13:03:48;;;;;;;9.68;5.53;;;;;;;;;;5015115;28;20077;-76
2023/10/08 13:06:21;;;;;;;12.73;5.00;;;;;;;;;;5017822;28;20037;-75
2023/10/08 13:08:49;;;;;;;9.15;4.43;;;;;;;;;;5016684;28;20526;-75
2023/10/08 13:11:14;;;;;;;12.43;5.07;;;;;;;;;;5015823;28;21786;-76
2023/10/08 13:13:39;;;;;;;9.48;4.25;;;;;;;;;;5016839;28;20538;-75
2023/10/08 13:16:07;;;;;;;9.50;4.30;;;;;;;;;;5016149;28;20038;-75
2023/10/08 13:18:37;;;;;;;7.90;3.75;;;;;;;;;;5016346;28;20089;-75
2023/10/08 13:21:03;;;;;;;8.90;3.40;;;;;;;;;;5015218;28;20128;-75
2023/10/08 13:23:29;;;;;;;7.22;3.67;;;;;;;;;;5014788;28;20044;-75
2023/10/08 13:25:54;;;;;;;9.48;4.03;;;;;;;;;;5012621;28;20952;-75
2023/10/08 13:28:23;;;;;;;9.55;4.00;;;;;;;;;;5014108;28;20033;-75
2023/10/08 13:30:52;;;;;;;7.00;3.58;;;;;;;;;;5014597;28;20042;-75
2023/10/08 13:33:19;;;;;;;5.63;3.45;;;;;;;;;;5012359;28;20176;-74
2023/10/08 13:35:45;;;;;;;9.05;3.78;;;;;;;;;;5013341;28;20053;-74
2023/10/08 13:38:13;;;;;;;10.82;3.55;;;;;;;;;;5017190;28;20630;-75
2023/10/08 13:40:43;;;;;;;7.57;3.67;;;;;;;;;;5020328;28;20053;-75
2023/10/08 13:43:11;;;;;;;6.15;3.65;;;;;;;;;;5012307;28;20041;-76
2023/10/08 13:45:39;;;;;;;8.48;3.70;;;;;;;;;;5012890;28;20049;-75
2023/10/08 13:48:05;;;;;;;8.63;3.80;;;;;;;;;;5003985;28;20045;-74
2023/10/08 13:50:31;;;;;;;8.02;3.78;;;;;;;;;;5014757;28;20021;-74
2023/10/08 13:52:58;;;;;;;10.55;3.22;;;;;;;;;;5017048;28;20075;-74
2023/10/08 13:55:25;;;;;;;5.35;2.90;;;;;;;;;;5017823;28;20053;-74
2023/10/08 13:57:54;;;;;;;6.50;3.47;;;;;;;;;;5011849;28;20038;-74
2023/10/08 14:00:25;;;;;;;13.38;7.82;;;;;;;;;;5019066;28;20041;-75
2023/10/08 14:02:53;;;;;;;9.35;3.38;;;;;;;;;;5035531;28;20041;-75
2023/10/08 14:05:23;;;;;;;8.68;3.20;;;;;;;;;;5014366;28;20045;-74
2023/10/08 14:07:51;;;;;;;7.50;3.35;;;;;;;;;;5013096;28;20057;-74
2023/10/08 14:10:18;;;;;;;7.55;3.47;;;;;;;;;;5016036;28;20057;-75
2023/10/08 14:12:48;;;;;;;7.63;3.53;;;;;;;;;;5025072;28;20437;-75
2023/10/08 14:15:16;;;;;;;7.97;3.33;;;;;;;;;;5024084;28;20041;-75
2023/10/08 14:17:48;;;;;;;7.60;3.42;;;;;;;;;;5025360;28;20050;-75
2023/10/08 14:20:21;;;;;;;11.50;3.72;;;;;;;;;;5017371;28;20029;-75
2023/10/08 14:22:52;;;;;;;8.90;3.72;;;;;;;;;;5010631;28;20037;-74
2023/10/08 14:25:22;;;;;;;5.97;3.03;;;;;;;;;;5018251;28;20081;-75
2023/10/08 14:27:52;;;;;;;7.32;3.20;;;;;;;;;;5012985;28;20042;-76
2023/10/08 14:30:21;;;;;;;6.13;3.13;;;;;;;;;;5010644;28;20053;-75
2023/10/08 14:32:47;;;;;;;7.78;3.22;;;;;;;;;;5018254;28;20090;-76
2023/10/08 14:43:25;;;;;;;8.73;3.50;;;;;;;;;;5018094;28;20422;-74
2023/10/08 14:45:52;;;;;;;9.75;3.70;;;;;;;;;;5021474;28;20034;-76
2023/10/08 14:48:18;;;;;;;7.60;3.22;;;;;;;;;;5016751;28;20187;-76
2023/10/08 14:50:43;;;;;;;4.65;2.90;;;;;;;;;;5012286;28;20526;-76
2023/10/08 14:53:09;;;;;;;6.43;3.50;;;;;;;;;;5017241;28;20048;-76
2023/10/08 14:55:38;;;;;;;7.70;3.30;;;;;;;;;;5017243;28;20468;-76
2023/10/08 14:58:10;;;;;;;7.85;3.50;;;;;;;;;;5014714;28;20041;-76
2023/10/08 15:00:37;;;;;;;7.05;3.60;;;;;;;;;;5030921;28;20045;-76
2023/10/08 15:03:03;;;;;;;6.45;3.13;;;;;;;;;;5022208;28;20527;-76
2023/10/08 15:05:28;;;;;;;9.18;3.50;;;;;;;;;;5017054;28;20037;-76
2023/10/08 15:07:54;;;;;;;7.97;3.25;;;;;;;;;;5014353;28;20076;-76
2023/10/08 15:10:21;;;;;;;7.72;3.20;;;;;;;;;;5012565;28;20042;-76
2023/10/08 15:12:47;;;;;;;7.57;3.60;;;;;;;;;;5012059;28;20048;-76
2023/10/08 15:15:13;;;;;;;5.68;3.03;;;;;;;;;;5018701;28;20042;-76
2023/10/08 15:17:43;;;;;;;8.45;3.50;;;;;;;;;;5016253;28;20030;-76
2023/10/08 15:20:16;;;;;;;7.68;3.13;;;;;;;;;;5006413;28;20116;-76
2023/10/08 15:22:42;;;;;;;;;;;;;;;;;;5020033;28;20099;-76
2023/10/08 15:25:10;;;;;;;6.38;3.45;;;;;;;;;;5012233;28;19932;-76
2023/10/08 15:27:39;;;;;;;6.55;3.03;;;;;;;;;;5010723;28;20046;-75
2023/10/08 15:30:12;;;;;;;10.02;3.33;;;;;;;;;;5011819;28;20045;-74
2023/10/08 15:32:39;;;;;;;7.53;3.38;;;;;;;;;;5017822;28;20036;-75
2023/10/08 15:35:10;;;;;;;6.57;3.35;;;;;;;;;;5017843;28;20084;-76
2023/10/08 15:37:40;;;;;;;7.18;3.20;;;;;;;;;;5027764;28;20042;-76
2023/10/08 15:40:06;;;;;;;11.07;3.58;;;;;;;;;;5037187;28;20030;-75
2023/10/08 15:42:35;;;;;;;5.18;3.30;;;;;;;;;;5022202;28;20029;-76
2023/10/08 15:45:02;;;;;;;9.32;3.55;;;;;;;;;;5017881;28;20722;-76
2023/10/08 15:47:28;;;;;;;8.15;3.63;;;;;;;;;;5015641;28;20032;-76
2023/10/08 15:49:54;;;;;;;7.68;3.35;;;;;;;;;;4999437;28;20037;-76
2023/10/08 15:52:20;;;;;;;5.40;3.13;;;;;;;;;;5009025;28;20116;-75
2023/10/08 15:54:45;;;;;;;4.60;3.15;;;;;;;;;;5009284;28;20044;-75
2023/10/08 15:57:11;;;;;;;7.60;3.20;;;;;;;;;;5001208;28;20131;-76